sensor_id;sensor_type;location;lat;lon;timestamp;P1;durP1;ratioP1;P2;durP2;ratioP2
29168;SDS011;16219;42.864;23.360;2023-04-01T00:01:05;6.20;;;4.75;;
29168;SDS011;16219;42.864;23.360;2023-04-01T00:03:32;22.77;;;4.32;;
29168;SDS011;16219;42.864;23.360;2023-04-01T00:06:00;5.80;;;3.70;;
29168;SDS011;16219;42.864;23.360;2023-04-01T00:08:28;3.72;;;3.35;;
29168;SDS011;16219;42.864;23.360;2023-04-01T00:10:55;4.22;;;2.92;;
29168;SDS011;16219;42.864;23.360;2023-04-01T00:13:24;4.25;;;3.85;;
29168;SDS011;16219;42.864;23.360;2023-04-01T00:15:52;9.25;;;4.80;;
29168;SDS011;16219;42.864;23.360;2023-04-01T00:18:19;3.60;;;3.30;;
29168;SDS011;16219;42.864;23.360;2023-04-01T00:20:47;2.92;;;2.58;;
29168;SDS011;16219;42.864;23.360;2023-04-01T00:23:15;13.00;;;4.60;;
29168;SDS011;16219;42.864;23.360;2023-04-01T00:25:43;6.32;;;3.40;;
29168;SDS011;16219;42.864;23.360;2023-04-01T00:28:13;4.03;;;3.58;;
29168;SDS011;16219;42.864;23.360;2023-04-01T00:30:43;6.38;;;4.03;;
29168;SDS011;16219;42.864;23.360;2023-04-01T00:33:11;4.60;;;3.47;;
29168;SDS011;16219;42.864;23.360;2023-04-01T00:35:38;4.70;;;3.75;;
29168;SDS011;16219;42.864;23.360;2023-04-01T00:38:05;4.35;;;3.15;;
29168;SDS011;16219;42.864;23.360;2023-04-01T00:40:33;3.75;;;2.90;;
29168;SDS011;16219;42.864;23.360;2023-04-01T00:43:02;5.28;;;3.72;;
29168;SDS011;16219;42.864;23.360;2023-04-01T00:45:32;5.00;;;3.50;;
29168;SDS011;16219;42.864;23.360;2023-04-01T00:48:03;3.17;;;2.83;;
29168;SDS011;16219;42.864;23.360;2023-04-01T00:50:33;3.33;;;3.03;;
29168;SDS011;16219;42.864;23.360;2023-04-01T00:53:02;5.90;;;3.22;;
29168;SDS011;16219;42.864;23.360;2023-04-01T00:55:30;7.00;;;3.65;;
29168;SDS011;16219;42.864;23.360;2023-04-01T00:58:00;2.55;;;2.35;;
29168;SDS011;16219;42.864;23.360;2023-04-01T01:00:30;3.03;;;2.75;;
29168;SDS011;16219;42.864;23.360;2023-04-01T01:02:57;3.67;;;3.00;;
29168;SDS011;16219;42.864;23.360;2023-04-01T01:05:29;2.67;;;2.40;;
29168;SDS011;16219;42.864;23.360;2023-04-01T01:08:07;3.20;;;2.95;;
29168;SDS011;16219;42.864;23.360;2023-04-01T01:10:42;8.10;;;3.42;;
29168;SDS011;16219;42.864;23.360;2023-04-01T01:13:16;2.40;;;2.25;;
29168;SDS011;16219;42.864;23.360;2023-04-01T01:15:47;5.50;;;3.67;;
29168;SDS011;16219;42.864;23.360;2023-04-01T01:18:23;2.03;;;1.92;;
29168;SDS011;16219;42.864;23.360;2023-04-01T01:27:06;2.33;;;1.83;;
29168;SDS011;16219;42.864;23.360;2023-04-01T01:29:49;2.67;;;2.47;;
29168;SDS011;16219;42.864;23.360;2023-04-01T01:32:28;4.30;;;2.33;;
29168;SDS011;16219;42.864;23.360;2023-04-01T01:35:22;3.03;;;2.72;;
29168;SDS011;16219;42.864;23.360;2023-04-01T01:37:54;7.00;;;3.33;;
29168;SDS011;16219;42.864;23.360;2023-04-01T01:40:24;3.92;;;2.58;;
29168;SDS011;16219;42.864;23.360;2023-04-01T01:42:53;2.03;;;1.88;;
29168;SDS011;16219;42.864;23.360;2023-04-01T01:45:26;2.00;;;1.90;;
29168;SDS011;16219;42.864;23.360;2023-04-01T01:47:54;3.05;;;2.65;;
29168;SDS011;16219;42.864;23.360;2023-04-01T01:50:25;9.75;;;3.40;;
29168;SDS011;16219;42.864;23.360;2023-04-01T01:53:00;2.25;;;2.05;;
29168;SDS011;16219;42.864;23.360;2023-04-01T01:55:30;3.45;;;2.58;;
29168;SDS011;16219;42.864;23.360;2023-04-01T01:57:59;4.18;;;2.85;;
29168;SDS011;16219;42.864;23.360;2023-04-01T02:00:32;2.53;;;1.90;;
29168;SDS011;16219;42.864;23.360;2023-04-01T02:03:00;2.70;;;1.95;;
29168;SDS011;16219;42.864;23.360;2023-04-01T02:05:29;2.95;;;2.17;;
29168;SDS011;16219;42.864;23.360;2023-04-01T02:08:06;7.88;;;2.35;;
29168;SDS011;16219;42.864;23.360;2023-04-01T02:10:37;2.95;;;2.75;;
29168;SDS011;16219;42.864;23.360;2023-04-01T02:13:11;3.58;;;2.42;;
29168;SDS011;16219;42.864;23.360;2023-04-01T02:16:00;1.25;;;1.19;;
29168;SDS011;16219;42.864;23.360;2023-04-01T02:18:33;4.57;;;2.88;;
29168;SDS011;16219;42.864;23.360;2023-04-01T02:21:04;1.85;;;1.70;;
29168;SDS011;16219;42.864;23.360;2023-04-01T02:23:33;5.95;;;1.95;;
29168;SDS011;16219;42.864;23.360;2023-04-01T02:26:04;2.83;;;2.30;;
29168;SDS011;16219;42.864;23.360;2023-04-01T02:28:33;8.75;;;2.83;;
29168;SDS011;16219;42.864;23.360;2023-04-01T02:31:03;3.67;;;2.15;;
29168;SDS011;16219;42.864;23.360;2023-04-01T02:33:30;2.00;;;1.88;;
29168;SDS011;16219;42.864;23.360;2023-04-01T02:35:58;3.88;;;2.22;;
29168;SDS011;16219;42.864;23.360;2023-04-01T02:38:27;3.53;;;2.65;;
29168;SDS011;16219;42.864;23.360;2023-04-01T02:40:56;2.50;;;2.30;;
29168;SDS011;16219;42.864;23.360;2023-04-01T02:43:25;2.40;;;1.55;;
29168;SDS011;16219;42.864;23.360;2023-04-01T02:45:52;3.75;;;2.17;;
29168;SDS011;16219;42.864;23.360;2023-04-01T02:48:19;1.65;;;1.55;;
29168;SDS011;16219;42.864;23.360;2023-04-01T02:50:47;2.40;;;2.17;;
29168;SDS011;16219;42.864;23.360;2023-04-01T02:53:14;2.70;;;2.40;;
29168;SDS011;16219;42.864;23.360;2023-04-01T02:55:43;3.83;;;2.85;;
29168;SDS011;16219;42.864;23.360;2023-04-01T02:58:10;1.92;;;1.80;;
29168;SDS011;16219;42.864;23.360;2023-04-01T03:00:37;1.88;;;1.63;;
29168;SDS011;16219;42.864;23.360;2023-04-01T03:03:04;3.15;;;2.25;;
29168;SDS011;16219;42.864;23.360;2023-04-01T03:05:31;1.67;;;1.58;;
29168;SDS011;16219;42.864;23.360;2023-04-01T03:07:58;2.72;;;2.22;;
29168;SDS011;16219;42.864;23.360;2023-04-01T03:10:25;6.38;;;2.90;;
29168;SDS011;16219;42.864;23.360;2023-04-01T03:12:53;13.15;;;2.50;;
29168;SDS011;16219;42.864;23.360;2023-04-01T03:15:21;4.43;;;2.47;;
29168;SDS011;16219;42.864;23.360;2023-04-01T03:17:48;2.83;;;2.10;;
29168;SDS011;16219;42.864;23.360;2023-04-01T03:20:16;2.88;;;1.58;;
29168;SDS011;16219;42.864;23.360;2023-04-01T03:22:44;3.05;;;2.75;;
29168;SDS011;16219;42.864;23.360;2023-04-01T03:25:12;5.38;;;2.28;;
29168;SDS011;16219;42.864;23.360;2023-04-01T03:27:39;5.85;;;2.63;;
29168;SDS011;16219;42.864;23.360;2023-04-01T03:30:09;3.08;;;2.55;;
29168;SDS011;16219;42.864;23.360;2023-04-01T03:32:45;13.15;;;2.47;;
29168;SDS011;16219;42.864;23.360;2023-04-01T03:35:12;1.42;;;1.33;;
29168;SDS011;16219;42.864;23.360;2023-04-01T03:37:39;2.30;;;2.10;;
29168;SDS011;16219;42.864;23.360;2023-04-01T03:40:07;2.47;;;2.28;;
29168;SDS011;16219;42.864;23.360;2023-04-01T03:42:35;7.45;;;2.60;;
29168;SDS011;16219;42.864;23.360;2023-04-01T03:45:02;4.00;;;2.50;;
29168;SDS011;16219;42.864;23.360;2023-04-01T03:47:31;2.70;;;2.17;;
29168;SDS011;16219;42.864;23.360;2023-04-01T03:49:58;2.75;;;2.30;;
29168;SDS011;16219;42.864;23.360;2023-04-01T03:52:25;4.55;;;2.47;;
29168;SDS011;16219;42.864;23.360;2023-04-01T03:54:53;2.42;;;1.95;;
29168;SDS011;16219;42.864;23.360;2023-04-01T03:57:20;2.92;;;1.90;;
29168;SDS011;16219;42.864;23.360;2023-04-01T03:59:47;2.70;;;2.40;;
29168;SDS011;16219;42.864;23.360;2023-04-01T04:02:15;2.20;;;2.08;;
29168;SDS011;16219;42.864;23.360;2023-04-01T04:04:43;4.32;;;2.90;;
29168;SDS011;16219;42.864;23.360;2023-04-01T04:07:11;3.72;;;1.88;;
29168;SDS011;16219;42.864;23.360;2023-04-01T04:09:56;6.07;;;3.22;;
29168;SDS011;16219;42.864;23.360;2023-04-01T04:12:23;3.30;;;2.85;;
29168;SDS011;16219;42.864;23.360;2023-04-01T04:14:51;2.80;;;2.58;;
29168;SDS011;16219;42.864;23.360;2023-04-01T04:17:18;5.22;;;3.70;;
29168;SDS011;16219;42.864;23.360;2023-04-01T04:19:47;2.65;;;2.45;;
29168;SDS011;16219;42.864;23.360;2023-04-01T04:22:15;1.83;;;1.73;;
29168;SDS011;16219;42.864;23.360;2023-04-01T04:24:42;2.70;;;2.20;;
29168;SDS011;16219;42.864;23.360;2023-04-01T04:27:11;18.60;;;2.80;;
29168;SDS011;16219;42.864;23.360;2023-04-01T04:29:51;2.50;;;2.20;;
29168;SDS011;16219;42.864;23.360;2023-04-01T04:32:18;1.95;;;1.77;;
29168;SDS011;16219;42.864;23.360;2023-04-01T04:34:47;2.50;;;2.30;;
29168;SDS011;16219;42.864;23.360;2023-04-01T04:37:14;5.30;;;2.72;;
29168;SDS011;16219;42.864;23.360;2023-04-01T04:39:43;5.05;;;3.20;;
29168;SDS011;16219;42.864;23.360;2023-04-01T04:42:10;2.88;;;2.63;;
29168;SDS011;16219;42.864;23.360;2023-04-01T04:44:37;2.10;;;1.90;;
29168;SDS011;16219;42.864;23.360;2023-04-01T04:47:05;9.95;;;2.40;;
29168;SDS011;16219;42.864;23.360;2023-04-01T04:49:32;2.33;;;2.15;;
29168;SDS011;16219;42.864;23.360;2023-04-01T04:52:06;2.13;;;1.85;;
29168;SDS011;16219;42.864;23.360;2023-04-01T04:54:33;2.97;;;2.35;;
29168;SDS011;16219;42.864;23.360;2023-04-01T04:57:02;4.00;;;2.90;;
29168;SDS011;16219;42.864;23.360;2023-04-01T04:59:34;3.95;;;2.63;;
29168;SDS011;16219;42.864;23.360;2023-04-01T05:02:15;4.82;;;3.03;;
29168;SDS011;16219;42.864;23.360;2023-04-01T05:04:42;4.53;;;2.97;;
29168;SDS011;16219;42.864;23.360;2023-04-01T05:07:11;2.15;;;2.05;;
29168;SDS011;16219;42.864;23.360;2023-04-01T05:09:39;3.83;;;2.83;;
29168;SDS011;16219;42.864;23.360;2023-04-01T05:12:06;1.85;;;1.70;;
29168;SDS011;16219;42.864;23.360;2023-04-01T05:14:59;3.10;;;2.88;;
29168;SDS011;16219;42.864;23.360;2023-04-01T05:17:27;2.22;;;2.03;;
29168;SDS011;16219;42.864;23.360;2023-04-01T05:19:55;3.65;;;1.88;;
29168;SDS011;16219;42.864;23.360;2023-04-01T05:22:24;5.30;;;3.03;;
29168;SDS011;16219;42.864;23.360;2023-04-01T05:24:51;1.60;;;1.55;;
29168;SDS011;16219;42.864;23.360;2023-04-01T05:27:26;5.00;;;3.07;;
29168;SDS011;16219;42.864;23.360;2023-04-01T05:30:05;2.60;;;2.40;;
29168;SDS011;16219;42.864;23.360;2023-04-01T05:32:56;3.53;;;3.10;;
29168;SDS011;16219;42.864;23.360;2023-04-01T05:35:24;2.65;;;2.03;;
29168;SDS011;16219;42.864;23.360;2023-04-01T05:37:53;2.50;;;2.10;;
29168;SDS011;16219;42.864;23.360;2023-04-01T05:40:20;4.93;;;3.08;;
29168;SDS011;16219;42.864;23.360;2023-04-01T05:42:48;5.40;;;3.78;;
29168;SDS011;16219;42.864;23.360;2023-04-01T05:45:16;7.20;;;3.03;;
29168;SDS011;16219;42.864;23.360;2023-04-01T05:48:03;4.07;;;3.10;;
29168;SDS011;16219;42.864;23.360;2023-04-01T05:50:39;2.83;;;2.25;;
29168;SDS011;16219;42.864;23.360;2023-04-01T05:53:10;2.72;;;2.22;;
29168;SDS011;16219;42.864;23.360;2023-04-01T05:55:40;2.45;;;2.28;;
29168;SDS011;16219;42.864;23.360;2023-04-01T05:58:08;3.10;;;2.65;;
29168;SDS011;16219;42.864;23.360;2023-04-01T06:00:38;7.70;;;4.68;;
29168;SDS011;16219;42.864;23.360;2023-04-01T06:03:05;6.93;;;3.47;;
29168;SDS011;16219;42.864;23.360;2023-04-01T06:05:36;4.70;;;3.50;;
29168;SDS011;16219;42.864;23.360;2023-04-01T06:08:10;2.43;;;2.30;;
29168;SDS011;16219;42.864;23.360;2023-04-01T06:10:48;3.63;;;2.17;;
29168;SDS011;16219;42.864;23.360;2023-04-01T06:13:32;1.80;;;1.60;;
29168;SDS011;16219;42.864;23.360;2023-04-01T06:16:11;1.75;;;1.65;;
29168;SDS011;16219;42.864;23.360;2023-04-01T06:19:03;2.38;;;2.13;;
29168;SDS011;16219;42.864;23.360;2023-04-01T06:27:38;1.80;;;1.70;;
29168;SDS011;16219;42.864;23.360;2023-04-01T06:30:25;2.33;;;1.83;;
29168;SDS011;16219;42.864;23.360;2023-04-01T06:35:41;2.00;;;1.80;;
29168;SDS011;16219;42.864;23.360;2023-04-01T06:38:23;3.08;;;1.77;;
29168;SDS011;16219;42.864;23.360;2023-04-01T06:44:07;1.85;;;1.75;;
29168;SDS011;16219;42.864;23.360;2023-04-01T06:47:04;1.33;;;1.23;;
29168;SDS011;16219;42.864;23.360;2023-04-01T06:50:04;3.92;;;1.30;;
29168;SDS011;16219;42.864;23.360;2023-04-01T06:53:02;0.85;;;0.85;;
29168;SDS011;16219;42.864;23.360;2023-04-01T06:55:56;1.10;;;1.10;;
29168;SDS011;16219;42.864;23.360;2023-04-01T06:58:44;2.75;;;1.80;;
29168;SDS011;16219;42.864;23.360;2023-04-01T07:01:16;1.05;;;1.05;;
29168;SDS011;16219;42.864;23.360;2023-04-01T07:03:47;2.00;;;1.45;;
29168;SDS011;16219;42.864;23.360;2023-04-01T07:06:23;3.03;;;1.60;;
29168;SDS011;16219;42.864;23.360;2023-04-01T07:08:55;1.60;;;1.50;;
29168;SDS011;16219;42.864;23.360;2023-04-01T07:11:42;5.95;;;2.05;;
29168;SDS011;16219;42.864;23.360;2023-04-01T07:14:35;2.40;;;1.80;;
29168;SDS011;16219;42.864;23.360;2023-04-01T07:17:04;1.90;;;1.45;;
29168;SDS011;16219;42.864;23.360;2023-04-01T07:19:36;0.95;;;0.90;;
29168;SDS011;16219;42.864;23.360;2023-04-01T07:22:14;6.93;;;1.88;;
29168;SDS011;16219;42.864;23.360;2023-04-01T07:25:02;0.95;;;0.95;;
29168;SDS011;16219;42.864;23.360;2023-04-01T07:27:31;0.70;;;0.70;;
29168;SDS011;16219;42.864;23.360;2023-04-01T07:30:00;1.42;;;1.33;;
29168;SDS011;16219;42.864;23.360;2023-04-01T07:32:31;2.58;;;1.92;;
29168;SDS011;16219;42.864;23.360;2023-04-01T07:35:09;2.03;;;1.42;;
29168;SDS011;16219;42.864;23.360;2023-04-01T07:37:52;1.33;;;1.23;;
29168;SDS011;16219;42.864;23.360;2023-04-01T07:40:37;0.55;;;0.43;;
29168;SDS011;16219;42.864;23.360;2023-04-01T07:46:26;4.55;;;1.80;;
29168;SDS011;16219;42.864;23.360;2023-04-01T07:49:14;1.17;;;0.80;;
29168;SDS011;16219;42.864;23.360;2023-04-01T07:51:45;0.75;;;0.75;;
29168;SDS011;16219;42.864;23.360;2023-04-01T07:54:22;0.68;;;0.68;;
29168;SDS011;16219;42.864;23.360;2023-04-01T07:56:58;1.20;;;0.98;;
29168;SDS011;16219;42.864;23.360;2023-04-01T07:59:46;1.08;;;0.95;;
29168;SDS011;16219;42.864;23.360;2023-04-01T08:05:08;13.15;;;2.50;;
29168;SDS011;16219;42.864;23.360;2023-04-01T08:07:44;4.15;;;1.38;;
29168;SDS011;16219;42.864;23.360;2023-04-01T08:11:02;0.63;;;0.60;;
29168;SDS011;16219;42.864;23.360;2023-04-01T08:14:00;0.68;;;0.68;;
29168;SDS011;16219;42.864;23.360;2023-04-01T08:17:11;1.02;;;1.02;;
29168;SDS011;16219;42.864;23.360;2023-04-01T08:19:55;1.70;;;0.85;;
29168;SDS011;16219;42.864;23.360;2023-04-01T08:22:32;1.98;;;1.38;;
29168;SDS011;16219;42.864;23.360;2023-04-01T08:25:13;0.82;;;0.82;;
29168;SDS011;16219;42.864;23.360;2023-04-01T08:27:47;1.83;;;0.90;;
29168;SDS011;16219;42.864;23.360;2023-04-01T08:30:20;1.02;;;0.93;;
29168;SDS011;16219;42.864;23.360;2023-04-01T08:32:51;3.22;;;0.82;;
29168;SDS011;16219;42.864;23.360;2023-04-01T08:35:27;0.45;;;0.45;;
29168;SDS011;16219;42.864;23.360;2023-04-01T08:38:00;4.50;;;0.40;;
29168;SDS011;16219;42.864;23.360;2023-04-01T08:44:11;5.10;;;0.88;;
29168;SDS011;16219;42.864;23.360;2023-04-01T08:46:57;3.10;;;1.45;;
29168;SDS011;16219;42.864;23.360;2023-04-01T08:49:50;0.50;;;0.50;;
29168;SDS011;16219;42.864;23.360;2023-04-01T08:52:49;2.40;;;1.60;;
29168;SDS011;16219;42.864;23.360;2023-04-01T08:55:31;0.50;;;0.50;;
29168;SDS011;16219;42.864;23.360;2023-04-01T08:58:20;0.40;;;0.40;;
29168;SDS011;16219;42.864;23.360;2023-04-01T09:01:19;1.00;;;0.60;;
29168;SDS011;16219;42.864;23.360;2023-04-01T09:04:06;0.52;;;0.52;;
29168;SDS011;16219;42.864;23.360;2023-04-01T09:06:51;1.08;;;0.98;;
29168;SDS011;16219;42.864;23.360;2023-04-01T09:12:25;0.90;;;0.40;;
29168;SDS011;16219;42.864;23.360;2023-04-01T09:18:04;0.82;;;0.80;;
29168;SDS011;16219;42.864;23.360;2023-04-01T09:20:46;2.63;;;0.75;;
29168;SDS011;16219;42.864;23.360;2023-04-01T09:26:41;0.45;;;0.45;;
29168;SDS011;16219;42.864;23.360;2023-04-01T09:29:29;0.57;;;0.50;;
29168;SDS011;16219;42.864;23.360;2023-04-01T09:32:12;1.42;;;0.77;;
29168;SDS011;16219;42.864;23.360;2023-04-01T09:35:36;0.60;;;0.60;;
29168;SDS011;16219;42.864;23.360;2023-04-01T09:38:20;1.35;;;0.50;;
29168;SDS011;16219;42.864;23.360;2023-04-01T09:40:54;0.77;;;0.77;;
29168;SDS011;16219;42.864;23.360;2023-04-01T09:43:53;1.70;;;1.52;;
29168;SDS011;16219;42.864;23.360;2023-04-01T09:46:32;0.32;;;0.32;;
29168;SDS011;16219;42.864;23.360;2023-04-01T09:49:26;0.40;;;0.40;;
29168;SDS011;16219;42.864;23.360;2023-04-01T09:52:18;2.42;;;1.00;;
29168;SDS011;16219;42.864;23.360;2023-04-01T09:54:59;0.68;;;0.68;;
29168;SDS011;16219;42.864;23.360;2023-04-01T09:57:50;0.75;;;0.50;;
29168;SDS011;16219;42.864;23.360;2023-04-01T10:04:41;0.88;;;0.80;;
29168;SDS011;16219;42.864;23.360;2023-04-01T10:16:23;2.17;;;0.88;;
29168;SDS011;16219;42.864;23.360;2023-04-01T10:19:23;0.55;;;0.55;;
29168;SDS011;16219;42.864;23.360;2023-04-01T10:22:24;0.60;;;0.60;;
29168;SDS011;16219;42.864;23.360;2023-04-01T10:25:15;0.85;;;0.63;;
29168;SDS011;16219;42.864;23.360;2023-04-01T10:41:37;1.85;;;0.70;;
29168;SDS011;16219;42.864;23.360;2023-04-01T10:56:33;0.50;;;0.50;;
29168;SDS011;16219;42.864;23.360;2023-04-01T11:15:31;2.53;;;2.33;;
29168;SDS011;16219;42.864;23.360;2023-04-01T11:18:24;1.48;;;1.13;;
29168;SDS011;16219;42.864;23.360;2023-04-01T11:21:50;1.00;;;0.87;;
29168;SDS011;16219;42.864;23.360;2023-04-01T11:24:52;1.20;;;1.10;;
29168;SDS011;16219;42.864;23.360;2023-04-01T11:27:55;1.92;;;1.65;;
29168;SDS011;16219;42.864;23.360;2023-04-01T11:30:44;0.60;;;0.60;;
29168;SDS011;16219;42.864;23.360;2023-04-01T11:33:25;1.38;;;0.50;;
29168;SDS011;16219;42.864;23.360;2023-04-01T11:36:06;6.93;;;1.27;;
29168;SDS011;16219;42.864;23.360;2023-04-01T11:38:54;1.40;;;0.77;;
29168;SDS011;16219;42.864;23.360;2023-04-01T11:42:09;0.77;;;0.77;;
29168;SDS011;16219;42.864;23.360;2023-04-01T11:45:10;1.83;;;1.33;;
29168;SDS011;16219;42.864;23.360;2023-04-01T11:50:53;0.98;;;0.93;;
29168;SDS011;16219;42.864;23.360;2023-04-01T11:53:41;1.48;;;0.70;;
29168;SDS011;16219;42.864;23.360;2023-04-01T11:56:24;0.98;;;0.90;;
29168;SDS011;16219;42.864;23.360;2023-04-01T12:02:11;0.60;;;0.60;;
29168;SDS011;16219;42.864;23.360;2023-04-01T12:07:50;1.63;;;1.52;;
29168;SDS011;16219;42.864;23.360;2023-04-01T12:10:33;0.80;;;0.80;;
29168;SDS011;16219;42.864;23.360;2023-04-01T12:13:11;1.52;;;1.20;;
29168;SDS011;16219;42.864;23.360;2023-04-01T12:15:54;2.25;;;1.85;;
29168;SDS011;16219;42.864;23.360;2023-04-01T12:21:07;0.73;;;0.73;;
29168;SDS011;16219;42.864;23.360;2023-04-01T12:27:11;11.90;;;1.90;;
29168;SDS011;16219;42.864;23.360;2023-04-01T12:29:57;0.93;;;0.93;;
29168;SDS011;16219;42.864;23.360;2023-04-01T12:32:34;2.25;;;1.55;;
29168;SDS011;16219;42.864;23.360;2023-04-01T12:35:15;1.00;;;1.00;;
29168;SDS011;16219;42.864;23.360;2023-04-01T12:37:53;1.00;;;0.90;;
29168;SDS011;16219;42.864;23.360;2023-04-01T12:40:32;1.80;;;1.70;;
29168;SDS011;16219;42.864;23.360;2023-04-01T12:43:20;1.27;;;1.17;;
29168;SDS011;16219;42.864;23.360;2023-04-01T12:46:10;1.38;;;1.08;;
29168;SDS011;16219;42.864;23.360;2023-04-01T12:48:59;3.67;;;1.50;;
29168;SDS011;16219;42.864;23.360;2023-04-01T12:51:51;4.07;;;3.10;;
29168;SDS011;16219;42.864;23.360;2023-04-01T12:54:48;4.72;;;2.13;;
29168;SDS011;16219;42.864;23.360;2023-04-01T12:57:49;3.15;;;2.13;;
29168;SDS011;16219;42.864;23.360;2023-04-01T13:00:44;2.22;;;1.33;;
29168;SDS011;16219;42.864;23.360;2023-04-01T13:09:13;1.70;;;1.00;;
29168;SDS011;16219;42.864;23.360;2023-04-01T13:11:54;1.20;;;1.05;;
29168;SDS011;16219;42.864;23.360;2023-04-01T13:14:46;1.05;;;0.93;;
29168;SDS011;16219;42.864;23.360;2023-04-01T13:17:25;2.92;;;1.27;;
29168;SDS011;16219;42.864;23.360;2023-04-01T13:20:03;1.20;;;1.10;;
29168;SDS011;16219;42.864;23.360;2023-04-01T13:22:45;0.95;;;0.90;;
29168;SDS011;16219;42.864;23.360;2023-04-01T13:25:24;0.98;;;0.98;;
29168;SDS011;16219;42.864;23.360;2023-04-01T13:28:08;0.57;;;0.57;;
29168;SDS011;16219;42.864;23.360;2023-04-01T13:30:44;1.02;;;0.77;;
29168;SDS011;16219;42.864;23.360;2023-04-01T13:33:19;4.72;;;0.50;;
29168;SDS011;16219;42.864;23.360;2023-04-01T13:35:57;0.88;;;0.88;;
29168;SDS011;16219;42.864;23.360;2023-04-01T13:41:37;4.60;;;0.98;;
29168;SDS011;16219;42.864;23.360;2023-04-01T13:44:17;3.13;;;0.80;;
29168;SDS011;16219;42.864;23.360;2023-04-01T13:46:54;2.58;;;1.08;;
29168;SDS011;16219;42.864;23.360;2023-04-01T13:49:57;1.30;;;0.77;;
29168;SDS011;16219;42.864;23.360;2023-04-01T13:52:48;1.58;;;1.17;;
29168;SDS011;16219;42.864;23.360;2023-04-01T13:58:23;0.57;;;0.57;;
29168;SDS011;16219;42.864;23.360;2023-04-01T14:01:10;1.15;;;0.95;;
29168;SDS011;16219;42.864;23.360;2023-04-01T14:03:57;1.10;;;0.80;;
29168;SDS011;16219;42.864;23.360;2023-04-01T14:06:45;2.50;;;1.92;;
29168;SDS011;16219;42.864;23.360;2023-04-01T14:09:30;0.57;;;0.57;;
29168;SDS011;16219;42.864;23.360;2023-04-01T14:12:13;1.10;;;1.10;;
29168;SDS011;16219;42.864;23.360;2023-04-01T14:14:59;1.55;;;0.73;;
29168;SDS011;16219;42.864;23.360;2023-04-01T14:17:49;0.73;;;0.55;;
29168;SDS011;16219;42.864;23.360;2023-04-01T14:20:33;0.93;;;0.90;;
29168;SDS011;16219;42.864;23.360;2023-04-01T14:23:13;0.55;;;0.55;;
29168;SDS011;16219;42.864;23.360;2023-04-01T14:26:02;0.70;;;0.70;;
29168;SDS011;16219;42.864;23.360;2023-04-01T14:28:39;0.52;;;0.52;;
29168;SDS011;16219;42.864;23.360;2023-04-01T14:31:23;1.23;;;0.73;;
29168;SDS011;16219;42.864;23.360;2023-04-01T14:34:21;0.73;;;0.73;;
29168;SDS011;16219;42.864;23.360;2023-04-01T14:36:58;1.20;;;1.10;;
29168;SDS011;16219;42.864;23.360;2023-04-01T14:42:55;0.70;;;0.70;;
29168;SDS011;16219;42.864;23.360;2023-04-01T14:45:51;0.85;;;0.85;;
29168;SDS011;16219;42.864;23.360;2023-04-01T14:48:32;1.45;;;0.45;;
29168;SDS011;16219;42.864;23.360;2023-04-01T14:51:08;0.80;;;0.70;;
29168;SDS011;16219;42.864;23.360;2023-04-01T14:53:43;0.30;;;0.30;;
29168;SDS011;16219;42.864;23.360;2023-04-01T14:56:34;7.93;;;0.70;;
29168;SDS011;16219;42.864;23.360;2023-04-01T14:59:04;0.65;;;0.65;;
29168;SDS011;16219;42.864;23.360;2023-04-01T15:01:37;0.28;;;0.28;;
29168;SDS011;16219;42.864;23.360;2023-04-01T15:07:15;3.70;;;1.25;;
29168;SDS011;16219;42.864;23.360;2023-04-01T15:09:56;8.23;;;1.90;;
29168;SDS011;16219;42.864;23.360;2023-04-01T15:12:30;1.63;;;1.40;;
29168;SDS011;16219;42.864;23.360;2023-04-01T15:15:12;1.42;;;1.33;;
29168;SDS011;16219;42.864;23.360;2023-04-01T15:17:58;5.68;;;2.60;;
29168;SDS011;16219;42.864;23.360;2023-04-01T15:23:21;5.38;;;1.25;;
29168;SDS011;16219;42.864;23.360;2023-04-01T15:26:03;3.58;;;2.13;;
29168;SDS011;16219;42.864;23.360;2023-04-01T15:28:42;0.93;;;0.90;;
29168;SDS011;16219;42.864;23.360;2023-04-01T15:31:19;2.13;;;0.82;;
29168;SDS011;16219;42.864;23.360;2023-04-01T15:33:59;2.03;;;1.38;;
29168;SDS011;16219;42.864;23.360;2023-04-01T15:36:44;1.10;;;1.10;;
29168;SDS011;16219;42.864;23.360;2023-04-01T15:39:22;1.10;;;1.05;;
